Time;durP1;ratioP1;P1;durP2;ratioP2;P2;SDS_P1;SDS_P2;PMS_P1;PMS_P2;Temp;Humidity;BMP_temperature;BMP_pressure;BME280_temperature;BME280_humidity;BME280_pressure;Samples;Min_cycle;Max_cycle;Signal;HPM_P1;HPM_P2
2023/07/07 00:00:50;;;;;;;17.30;9.00;;;;;;;;;;107927;1251;23125;-80
2023/07/07 00:03:37;;;;;;;15.30;8.50;;;;;;;;;;107857;1251;22538;-80
2023/07/07 00:06:03;;;;;;;11.30;8.50;;;;;;;;;;107835;1253;22544;-80
2023/07/07 00:08:31;;;;;;;19.00;8.50;;;;;;;;;;107907;1252;25397;-80
2023/07/07 00:10:58;;;;;;;13.20;7.50;;;;;;;;;;107610;1252;24206;-81
2023/07/07 00:13:25;;;;;;;13.40;8.80;;;;;;;;;;107924;1255;22531;-80
2023/07/07 00:15:57;;;;;;;19.90;8.90;;;;;;;;;;107887;1251;22544;-80
2023/07/07 00:18:26;;;;;;;10.60;7.60;;;;;;;;;;107893;1255;22542;-80
2023/07/07 00:20:52;;;;;;;;;;;;;;;;;;107903;1252;22635;-80
2023/07/07 00:23:19;;;;;;;18.20;7.90;;;;;;;;;;107914;1252;23219;-80
2023/07/07 00:25:45;;;;;;;13.80;8.00;;;;;;;;;;107908;1251;24214;-80
2023/07/07 00:28:11;;;;;;;11.30;8.80;;;;;;;;;;107827;1251;24228;-80
2023/07/07 00:30:38;;;;;;;13.00;7.30;;;;;;;;;;107844;1255;22648;-80
2023/07/07 00:33:04;;;;;;;13.20;8.20;;;;;;;;;;107854;1255;22653;-79
2023/07/07 00:35:30;;;;;;;10.10;6.60;;;;;;;;;;107886;1252;22550;-79
2023/07/07 00:37:57;;;;;;;13.20;7.80;;;;;;;;;;107865;1251;22533;-79
2023/07/07 00:40:23;;;;;;;13.40;8.30;;;;;;;;;;107777;1255;25245;-79
2023/07/07 00:42:50;;;;;;;12.60;8.10;;;;;;;;;;107844;1251;24269;-80
2023/07/07 00:45:17;;;;;;;13.60;8.30;;;;;;;;;;107763;1251;22624;-80
2023/07/07 00:47:45;;;;;;;14.20;7.30;;;;;;;;;;107776;1251;22541;-79
2023/07/07 00:50:11;;;;;;;15.90;9.10;;;;;;;;;;107890;1255;23135;-79
2023/07/07 00:52:38;;;;;;;14.10;7.40;;;;;;;;;;107880;1252;23116;-80
2023/07/07 00:55:04;;;;;;;10.20;7.20;;;;;;;;;;107696;1257;25373;-80
2023/07/07 00:57:31;;;;;;;10.10;7.40;;;;;;;;;;107820;1255;25493;-80
2023/07/07 00:59:57;;;;;;;14.80;8.00;;;;;;;;;;107806;1253;22639;-79
2023/07/07 01:02:25;;;;;;;11.30;6.30;;;;;;;;;;107892;1253;22654;-79
2023/07/07 01:04:52;;;;;;;13.60;7.60;;;;;;;;;;107862;1255;24073;-79
2023/07/07 01:07:21;;;;;;;17.90;7.90;;;;;;;;;;107897;1251;22647;-80
2023/07/07 01:09:47;;;;;;;12.10;7.20;;;;;;;;;;107856;1255;22591;-79
2023/07/07 01:12:14;;;;;;;11.40;6.70;;;;;;;;;;107824;1251;25453;-79
2023/07/07 01:14:41;;;;;;;11.60;7.60;;;;;;;;;;107848;1254;23935;-79
2023/07/07 01:17:12;;;;;;;13.30;8.00;;;;;;;;;;107852;1256;22541;-80
2023/07/07 01:19:59;;;;;;;9.60;6.40;;;;;;;;;;107916;1252;22665;-79
2023/07/07 01:22:35;;;;;;;11.90;6.60;;;;;;;;;;107921;1253;22548;-79
2023/07/07 01:25:19;;;;;;;12.70;7.10;;;;;;;;;;107890;1255;25513;-79
2023/07/07 01:27:53;;;;;;;13.90;6.70;;;;;;;;;;107920;1252;22649;-80
2023/07/07 01:30:29;;;;;;;14.70;8.80;;;;;;;;;;107899;1253;25398;-79
2023/07/07 01:32:55;;;;;;;14.60;7.00;;;;;;;;;;107884;1253;22528;-80
2023/07/07 01:35:22;;;;;;;11.70;7.50;;;;;;;;;;107876;1253;22606;-79
2023/07/07 01:37:52;;;;;;;14.50;6.20;;;;;;;;;;107753;1251;22529;-79
2023/07/07 01:40:18;;;;;;;12.30;7.00;;;;;;;;;;107833;1253;22636;-80
2023/07/07 01:42:50;;;;;;;13.50;7.40;;;;;;;;;;107955;1254;22536;-80
2023/07/07 01:45:26;;;;;;;13.40;7.10;;;;;;;;;;107778;1253;22619;-80
2023/07/07 01:47:55;;;;;;;15.30;7.50;;;;;;;;;;107930;1253;25416;-80
2023/07/07 01:50:22;;;;;;;13.40;7.20;;;;;;;;;;107754;1256;22558;-80
2023/07/07 01:52:51;;;;;;;16.30;8.30;;;;;;;;;;107881;1254;23286;-80
2023/07/07 01:55:17;;;;;;;;;;;;;;;;;;107782;1254;25119;-80
2023/07/07 01:57:45;;;;;;;12.20;6.50;;;;;;;;;;107914;1253;23794;-80
2023/07/07 02:00:12;;;;;;;10.60;6.90;;;;;;;;;;107903;1251;24319;-80
2023/07/07 02:02:38;;;;;;;13.10;6.50;;;;;;;;;;107741;1252;25363;-80
2023/07/07 02:05:05;;;;;;;12.20;7.30;;;;;;;;;;107981;1253;22534;-80
2023/07/07 02:07:31;;;;;;;13.50;6.80;;;;;;;;;;107935;1253;22556;-80
2023/07/07 02:09:58;;;;;;;11.90;6.90;;;;;;;;;;107871;1251;25329;-80
2023/07/07 02:12:24;;;;;;;11.70;6.20;;;;;;;;;;107899;1251;24456;-80
2023/07/07 02:14:50;;;;;;;10.50;7.10;;;;;;;;;;107879;1251;22700;-80
2023/07/07 02:17:18;;;;;;;10.60;5.80;;;;;;;;;;107963;1254;25352;-80
2023/07/07 02:19:44;;;;;;;10.10;6.40;;;;;;;;;;108104;1251;22656;-78
2023/07/07 02:22:11;;;;;;;10.20;6.40;;;;;;;;;;107929;1251;25403;-80
2023/07/07 02:24:37;;;;;;;13.20;6.40;;;;;;;;;;107921;1251;22641;-80
2023/07/07 02:27:04;;;;;;;10.50;5.90;;;;;;;;;;107874;1251;22533;-80
2023/07/07 02:29:30;;;;;;;9.50;7.20;;;;;;;;;;107891;1252;22529;-80
2023/07/07 02:31:57;;;;;;;8.00;5.50;;;;;;;;;;107947;1251;22590;-80
2023/07/07 02:34:23;;;;;;;12.30;7.70;;;;;;;;;;107990;1254;25294;-80
2023/07/07 02:36:52;;;;;;;11.50;6.70;;;;;;;;;;107926;1255;23050;-80
2023/07/07 02:39:18;;;;;;;12.80;7.40;;;;;;;;;;108010;1251;22639;-80
2023/07/07 02:41:44;;;;;;;14.70;6.50;;;;;;;;;;107901;1251;24340;-80
2023/07/07 02:44:11;;;;;;;10.20;6.30;;;;;;;;;;107901;1256;24378;-80
2023/07/07 02:46:37;;;;;;;9.60;6.20;;;;;;;;;;107942;1251;22650;-80
2023/07/07 02:49:03;;;;;;;12.20;7.10;;;;;;;;;;107891;1255;22547;-80
2023/07/07 02:51:30;;;;;;;12.20;6.30;;;;;;;;;;107851;1251;22440;-80
2023/07/07 02:53:56;;;;;;;13.50;6.40;;;;;;;;;;107969;1254;25461;-80
2023/07/07 02:56:23;;;;;;;9.70;5.90;;;;;;;;;;107877;1251;23100;-80
2023/07/07 02:58:49;;;;;;;9.30;6.50;;;;;;;;;;107961;1255;24404;-80
2023/07/07 03:01:16;;;;;;;10.10;6.90;;;;;;;;;;107974;1271;22656;-80
2023/07/07 03:03:46;;;;;;;14.10;5.70;;;;;;;;;;107949;1254;22586;-80
2023/07/07 03:06:15;;;;;;;11.60;6.20;;;;;;;;;;107952;1255;22595;-80
2023/07/07 03:08:42;;;;;;;10.80;6.70;;;;;;;;;;107932;1254;23424;-80
2023/07/07 03:11:10;;;;;;;9.30;6.60;;;;;;;;;;107987;1251;22651;-80
2023/07/07 03:13:36;;;;;;;11.30;6.20;;;;;;;;;;107954;1253;24878;-80
2023/07/07 03:16:13;;;;;;;11.50;6.40;;;;;;;;;;107795;1251;22645;-80
2023/07/07 03:18:40;;;;;;;11.90;6.40;;;;;;;;;;107731;1256;22542;-80
2023/07/07 03:21:07;;;;;;;10.40;6.20;;;;;;;;;;107802;1251;22535;-80
2023/07/07 03:23:33;;;;;;;11.90;6.00;;;;;;;;;;107855;1251;25122;-80
2023/07/07 03:26:09;;;;;;;10.30;6.60;;;;;;;;;;107946;1255;22528;-80
2023/07/07 03:28:36;;;;;;;11.00;6.80;;;;;;;;;;107855;1251;22612;-80
2023/07/07 03:31:09;;;;;;;15.50;8.70;;;;;;;;;;107924;1251;24193;-80
2023/07/07 03:33:35;;;;;;;10.80;7.00;;;;;;;;;;107893;1251;24193;-80
2023/07/07 03:36:02;;;;;;;9.40;6.40;;;;;;;;;;107953;1251;22577;-80
2023/07/07 03:38:29;;;;;;;11.20;7.20;;;;;;;;;;107950;1251;25510;-80
2023/07/07 03:40:55;;;;;;;13.00;6.40;;;;;;;;;;107768;1251;22549;-80
2023/07/07 03:43:22;;;;;;;13.80;7.10;;;;;;;;;;107946;1251;24344;-80
2023/07/07 03:45:48;;;;;;;9.50;6.20;;;;;;;;;;107765;1251;22531;-80
2023/07/07 03:48:15;;;;;;;11.50;6.40;;;;;;;;;;107777;1253;22641;-80
2023/07/07 03:50:41;;;;;;;12.40;6.90;;;;;;;;;;107898;1251;22743;-80
2023/07/07 03:53:07;;;;;;;9.20;6.20;;;;;;;;;;107941;1251;22578;-80
2023/07/07 03:55:34;;;;;;;10.80;7.50;;;;;;;;;;107914;1250;22575;-80
2023/07/07 03:58:00;;;;;;;12.40;6.70;;;;;;;;;;107912;1251;22623;-80
2023/07/07 04:00:27;;;;;;;11.60;7.40;;;;;;;;;;107795;1251;22764;-80
2023/07/07 04:02:53;;;;;;;16.70;7.70;;;;;;;;;;107950;1254;22535;-80
2023/07/07 04:05:20;;;;;;;11.30;5.70;;;;;;;;;;107951;1251;24241;-80
2023/07/07 04:07:46;;;;;;;15.10;7.50;;;;;;;;;;107942;1251;22618;-80
2023/07/07 04:10:13;;;;;;;11.00;7.90;;;;;;;;;;107754;1251;24376;-80
2023/07/07 04:12:39;;;;;;;13.00;8.20;;;;;;;;;;107948;1251;22577;-80
2023/07/07 04:15:06;;;;;;;12.70;8.20;;;;;;;;;;107913;1251;22508;-80
2023/07/07 04:17:32;;;;;;;17.20;8.60;;;;;;;;;;107918;1251;23245;-80
2023/07/07 04:19:58;;;;;;;15.20;9.30;;;;;;;;;;107888;1251;24224;-80
2023/07/07 04:22:25;;;;;;;13.80;8.00;;;;;;;;;;107784;1251;24367;-80
2023/07/07 04:25:07;;;;;;;12.70;7.00;;;;;;;;;;107947;1251;22622;-80
2023/07/07 04:27:34;;;;;;;11.80;7.90;;;;;;;;;;107912;1251;23222;-80
2023/07/07 04:30:00;;;;;;;11.70;8.00;;;;;;;;;;108173;1250;22577;-81
2023/07/07 04:32:27;;;;;;;11.10;7.70;;;;;;;;;;107997;1252;22593;-80
2023/07/07 04:34:54;;;;;;;17.10;7.70;;;;;;;;;;107908;1251;22764;-80
2023/07/07 04:37:20;;;;;;;18.10;9.90;;;;;;;;;;107981;1251;22623;-80
2023/07/07 04:39:48;;;;;;;17.90;9.60;;;;;;;;;;108004;1251;22617;-80
2023/07/07 04:42:15;;;;;;;17.80;9.70;;;;;;;;;;110210;1251;22556;-79
2023/07/07 04:44:41;;;;;;;18.50;8.40;;;;;;;;;;107529;1251;22622;-78
2023/07/07 04:47:08;;;;;;;13.50;7.70;;;;;;;;;;107458;1251;24364;-80
2023/07/07 04:49:34;;;;;;;16.70;7.90;;;;;;;;;;107872;1254;22531;-80
2023/07/07 04:52:01;;;;;;;23.50;9.90;;;;;;;;;;108014;1251;23391;-80
2023/07/07 04:54:27;;;;;;;26.30;12.60;;;;;;;;;;108090;1251;22636;-80
2023/07/07 04:56:54;;;;;;;13.70;9.70;;;;;;;;;;107983;1254;22607;-80
2023/07/07 04:59:21;;;;;;;14.00;6.50;;;;;;;;;;107905;1251;25823;-81
2023/07/07 05:01:47;;;;;;;10.60;6.90;;;;;;;;;;108016;1251;22576;-80
2023/07/07 05:04:15;;;;;;;11.10;7.00;;;;;;;;;;108079;1251;22640;-80
2023/07/07 05:06:41;;;;;;;12.80;8.60;;;;;;;;;;107999;1250;23290;-78
2023/07/07 05:09:08;;;;;;;16.90;10.60;;;;;;;;;;107492;1251;23808;-78
2023/07/07 05:11:34;;;;;;;18.10;10.20;;;;;;;;;;107476;1251;25453;-80
2023/07/07 05:14:01;;;;;;;15.90;9.60;;;;;;;;;;108023;1254;22622;-80
2023/07/07 05:16:30;;;;;;;18.30;10.30;;;;;;;;;;107968;1251;22532;-80
2023/07/07 05:18:56;;;;;;;12.20;8.80;;;;;;;;;;107890;1255;23257;-81
2023/07/07 05:21:24;;;;;;;11.90;7.60;;;;;;;;;;108202;1251;22585;-78
2023/07/07 05:23:52;;;;;;;9.70;7.10;;;;;;;;;;107574;1251;25463;-78
2023/07/07 05:26:21;;;;;;;13.00;6.70;;;;;;;;;;107476;1251;22518;-79
2023/07/07 05:28:51;;;;;;;10.30;6.90;;;;;;;;;;107550;1249;22577;-80
2023/07/07 05:31:17;;;;;;;12.00;7.70;;;;;;;;;;108382;1251;25332;-80
2023/07/07 05:33:43;;;;;;;11.60;7.40;;;;;;;;;;107967;1251;22557;-80
2023/07/07 05:36:10;;;;;;;15.30;7.80;;;;;;;;;;107963;1251;22557;-80
2023/07/07 05:38:40;;;;;;;11.90;6.90;;;;;;;;;;107971;1251;23223;-80
2023/07/07 05:41:06;;;;;;;9.00;6.80;;;;;;;;;;107901;1251;24445;-80
2023/07/07 05:43:36;;;;;;;11.20;6.60;;;;;;;;;;107848;1257;25494;-80
2023/07/07 05:46:03;;;;;;;12.30;6.60;;;;;;;;;;107953;1251;25463;-80
2023/07/07 05:48:29;;;;;;;12.80;6.70;;;;;;;;;;108002;1251;22656;-80
2023/07/07 05:50:57;;;;;;;9.60;6.90;;;;;;;;;;108017;1251;22635;-80
2023/07/07 05:53:24;;;;;;;10.40;6.60;;;;;;;;;;107907;1255;22550;-80
2023/07/07 05:55:50;;;;;;;11.30;6.80;;;;;;;;;;107990;1251;25343;-80
2023/07/07 05:58:17;;;;;;;10.60;6.30;;;;;;;;;;108485;1254;25521;-80
2023/07/07 06:00:43;;;;;;;10.00;6.20;;;;;;;;;;108310;1251;25266;-80
2023/07/07 06:03:09;;;;;;;8.20;5.50;;;;;;;;;;108061;1251;25270;-80
2023/07/07 06:05:36;;;;;;;10.90;5.30;;;;;;;;;;107911;1251;23883;-80
2023/07/07 06:08:05;;;;;;;9.30;5.70;;;;;;;;;;108000;1251;22563;-80
2023/07/07 06:10:32;;;;;;;11.20;5.90;;;;;;;;;;108276;1251;25348;-80
2023/07/07 06:12:59;;;;;;;13.30;6.50;;;;;;;;;;108567;1250;22640;-80
2023/07/07 06:15:26;;;;;;;9.40;6.60;;;;;;;;;;108266;1251;22537;-80
2023/07/07 06:17:52;;;;;;;12.40;6.30;;;;;;;;;;108307;1251;22604;-80
2023/07/07 06:20:18;;;;;;;7.80;5.90;;;;;;;;;;108345;1251;22525;-80
2023/07/07 06:22:45;;;;;;;13.70;8.50;;;;;;;;;;108308;1251;22533;-80
2023/07/07 06:25:11;;;;;;;8.60;5.60;;;;;;;;;;108234;1251;25463;-81
2023/07/07 06:27:38;;;;;;;8.40;5.20;;;;;;;;;;108233;1252;24350;-81
2023/07/07 06:30:05;;;;;;;7.90;5.40;;;;;;;;;;108203;1251;24369;-80
2023/07/07 06:32:34;;;;;;;14.30;7.80;;;;;;;;;;108267;1251;22571;-80
2023/07/07 06:35:01;;;;;;;8.20;5.30;;;;;;;;;;108220;1251;22534;-78
2023/07/07 06:37:27;;;;;;;8.40;5.70;;;;;;;;;;107481;1252;22639;-78
2023/07/07 06:39:54;;;;;;;9.40;5.40;;;;;;;;;;109704;1251;22359;-78
2023/07/07 06:42:21;;;;;;;8.30;6.00;;;;;;;;;;109853;1251;25306;-80
2023/07/07 06:44:48;;;;;;;9.30;6.60;;;;;;;;;;108318;1255;22557;-80
2023/07/07 06:47:15;;;;;;;11.70;6.20;;;;;;;;;;108215;1251;22543;-80
2023/07/07 06:49:41;;;;;;;9.90;5.00;;;;;;;;;;108208;1250;24341;-80
2023/07/07 06:52:08;;;;;;;9.30;5.80;;;;;;;;;;108219;1251;25488;-81
2023/07/07 06:54:34;;;;;;;9.80;6.10;;;;;;;;;;108463;1254;22601;-81
2023/07/07 06:57:01;;;;;;;10.40;6.10;;;;;;;;;;108146;1251;25474;-80
2023/07/07 06:59:27;;;;;;;11.70;6.90;;;;;;;;;;108200;1251;22616;-80
2023/07/07 07:01:53;;;;;;;11.00;6.50;;;;;;;;;;108545;1251;22563;-80
2023/07/07 07:04:20;;;;;;;9.00;6.60;;;;;;;;;;108322;1251;22647;-80
2023/07/07 07:06:46;;;;;;;11.30;7.60;;;;;;;;;;108538;1251;25313;-80
2023/07/07 07:09:14;;;;;;;14.40;6.20;;;;;;;;;;108421;1251;148475;-80
2023/07/07 07:11:40;;;;;;;11.10;5.80;;;;;;;;;;108292;1251;22541;-81
2023/07/07 07:14:07;;;;;;;10.10;5.90;;;;;;;;;;108471;1251;22619;-80
2023/07/07 07:16:33;;;;;;;9.50;5.60;;;;;;;;;;108250;1251;22552;-81
2023/07/07 07:19:00;;;;;;;11.60;6.30;;;;;;;;;;108480;1251;22559;-80
2023/07/07 07:21:26;;;;;;;10.70;6.50;;;;;;;;;;108624;1251;24305;-78
2023/07/07 07:23:53;;;;;;;12.70;5.40;;;;;;;;;;107944;1250;22560;-78
2023/07/07 07:26:21;;;;;;;12.40;5.80;;;;;;;;;;107892;1251;26565;-80
2023/07/07 07:28:47;;;;;;;;;;;;;;;;;;110590;1254;22484;-80
2023/07/07 07:31:14;;;;;;;15.60;6.90;;;;;;;;;;110637;1251;22379;-80
2023/07/07 07:33:40;;;;;;;11.70;6.00;;;;;;;;;;110606;1251;22289;-81
2023/07/07 07:36:07;;;;;;;10.50;5.70;;;;;;;;;;110688;1251;22581;-81
2023/07/07 07:38:33;;;;;;;11.70;5.40;;;;;;;;;;110558;1251;22406;-81
2023/07/07 07:41:00;;;;;;;10.40;6.10;;;;;;;;;;110697;1251;22638;-81
2023/07/07 07:43:26;;;;;;;12.10;5.30;;;;;;;;;;110598;1251;22203;-81
2023/07/07 07:45:54;;;;;;;10.10;5.20;;;;;;;;;;110664;1250;22305;-81
2023/07/07 07:48:20;;;;;;;10.10;5.30;;;;;;;;;;108411;1251;26030;-80
2023/07/07 07:50:46;;;;;;;6.90;4.50;;;;;;;;;;108196;1251;22845;-80
2023/07/07 07:53:13;;;;;;;10.80;5.20;;;;;;;;;;108479;1251;22841;-81
2023/07/07 07:55:39;;;;;;;8.10;5.10;;;;;;;;;;108180;1250;22630;-80
2023/07/07 07:58:09;;;;;;;8.90;4.50;;;;;;;;;;108139;1251;24341;-81
2023/07/07 08:00:35;;;;;;;8.20;5.10;;;;;;;;;;108319;1251;25409;-80
2023/07/07 08:03:01;;;;;;;7.40;5.00;;;;;;;;;;108612;1251;22587;-80
2023/07/07 08:05:28;;;;;;;8.70;4.00;;;;;;;;;;108424;1251;22527;-81
2023/07/07 08:07:54;;;;;;;8.50;4.60;;;;;;;;;;108667;1251;22351;-81
2023/07/07 08:10:22;;;;;;;8.90;5.00;;;;;;;;;;110565;1251;22308;-81
2023/07/07 08:12:48;;;;;;;9.70;4.80;;;;;;;;;;110465;1251;22453;-81
2023/07/07 08:15:16;;;;;;;7.80;3.80;;;;;;;;;;110637;1251;22322;-81
2023/07/07 08:17:42;;;;;;;7.40;4.50;;;;;;;;;;110600;1251;22360;-81
2023/07/07 08:20:19;;;;;;;9.70;4.40;;;;;;;;;;110614;1251;22966;-82
2023/07/07 08:22:45;;;;;;;8.20;3.50;;;;;;;;;;110664;1251;22410;-82
2023/07/07 08:25:12;;;;;;;7.00;4.40;;;;;;;;;;110590;1251;22451;-82
2023/07/07 08:27:38;;;;;;;8.60;3.50;;;;;;;;;;110636;1251;22502;-82
2023/07/07 08:30:05;;;;;;;5.60;4.00;;;;;;;;;;110643;1251;22189;-81
2023/07/07 08:32:31;;;;;;;4.30;2.90;;;;;;;;;;110608;1251;22250;-81
2023/07/07 08:34:57;;;;;;;6.40;3.60;;;;;;;;;;110637;1251;22680;-81
2023/07/07 08:37:24;;;;;;;6.30;3.50;;;;;;;;;;110566;1251;22372;-81
2023/07/07 08:39:51;;;;;;;8.40;3.70;;;;;;;;;;110614;1251;22976;-81
2023/07/07 08:42:25;;;;;;;5.80;3.10;;;;;;;;;;110581;1252;22472;-81
2023/07/07 08:44:51;;;;;;;6.80;2.40;;;;;;;;;;109274;1251;23007;-81
2023/07/07 08:47:29;;;;;;;3.60;2.50;;;;;;;;;;108393;1252;25468;-81
2023/07/07 08:49:59;;;;;;;11.70;2.90;;;;;;;;;;108198;1251;22531;-81
2023/07/07 08:52:28;;;;;;;7.10;2.60;;;;;;;;;;108354;1253;23196;-81
2023/07/07 08:55:07;;;;;;;4.30;2.40;;;;;;;;;;108333;1251;23302;-81
2023/07/07 08:57:35;;;;;;;7.30;2.20;;;;;;;;;;108211;1251;23730;-81
2023/07/07 09:00:01;;;;;;;;;;;;;;;;;;108269;1251;22601;-81
2023/07/07 09:02:43;;;;;;;9.30;2.70;;;;;;;;;;108307;1252;25274;-81
2023/07/07 09:05:13;;;;;;;5.00;2.40;;;;;;;;;;108171;1249;26425;-81
2023/07/07 09:07:46;;;;;;;6.10;2.90;;;;;;;;;;108227;1251;24394;-81
2023/07/07 09:10:31;;;;;;;9.20;2.60;;;;;;;;;;108197;1252;22620;-81
2023/07/07 09:12:58;;;;;;;4.70;2.10;;;;;;;;;;108258;1255;22542;-81
2023/07/07 09:15:26;;;;;;;5.20;2.70;;;;;;;;;;108271;1251;22636;-81
2023/07/07 09:17:54;;;;;;;5.20;2.90;;;;;;;;;;108199;1251;26515;-82
2023/07/07 09:20:21;;;;;;;3.50;2.30;;;;;;;;;;108162;1254;25442;-81
2023/07/07 09:22:49;;;;;;;8.20;2.10;;;;;;;;;;108341;1251;22657;-81
2023/07/07 09:25:25;;;;;;;5.60;2.10;;;;;;;;;;108233;1251;25287;-81
2023/07/07 09:27:57;;;;;;;9.20;2.80;;;;;;;;;;108101;1250;24369;-81
2023/07/07 09:30:32;;;;;;;3.40;2.10;;;;;;;;;;108188;1251;24411;-81
2023/07/07 09:32:59;;;;;;;3.50;1.80;;;;;;;;;;108296;1251;22817;-81
2023/07/07 09:35:31;;;;;;;3.30;1.90;;;;;;;;;;108251;1252;23259;-81
2023/07/07 09:38:13;;;;;;;4.60;2.10;;;;;;;;;;108169;1251;24354;-81
2023/07/07 09:40:43;;;;;;;4.40;1.90;;;;;;;;;;108235;1251;22868;-81
2023/07/07 09:43:28;;;;;;;4.20;1.80;;;;;;;;;;108269;1251;24736;-81
2023/07/07 09:45:54;;;;;;;5.10;2.50;;;;;;;;;;108172;1251;22524;-82
2023/07/07 09:48:25;;;;;;;3.30;2.20;;;;;;;;;;108220;1251;23359;-82
2023/07/07 09:50:58;;;;;;;3.80;2.10;;;;;;;;;;108211;1249;22648;-81
2023/07/07 09:53:35;;;;;;;3.70;2.30;;;;;;;;;;108223;1254;22531;-82
2023/07/07 09:56:01;;;;;;;7.10;2.30;;;;;;;;;;107898;1251;22590;-82
2023/07/07 09:58:29;;;;;;;4.00;2.10;;;;;;;;;;107729;1251;22528;-82
2023/07/07 10:00:56;;;;;;;4.30;3.00;;;;;;;;;;107990;1251;24365;-82
2023/07/07 10:03:25;;;;;;;5.60;2.20;;;;;;;;;;108064;1251;23231;-81
2023/07/07 10:05:51;;;;;;;10.10;2.80;;;;;;;;;;107759;1251;23667;-82
2023/07/07 10:08:18;;;;;;;5.90;2.70;;;;;;;;;;107797;1251;22604;-82
2023/07/07 10:10:45;;;;;;;3.80;1.70;;;;;;;;;;107933;1252;22531;-81
2023/07/07 10:13:14;;;;;;;6.00;2.80;;;;;;;;;;107988;1251;24572;-81
2023/07/07 10:15:48;;;;;;;4.10;2.20;;;;;;;;;;107966;1249;22656;-81
2023/07/07 10:18:14;;;;;;;4.80;2.30;;;;;;;;;;107871;1251;25472;-81
2023/07/07 10:20:41;;;;;;;5.10;2.10;;;;;;;;;;107991;1251;25436;-81
2023/07/07 10:23:11;;;;;;;5.00;2.60;;;;;;;;;;108018;1251;22536;-81
2023/07/07 10:25:38;;;;;;;3.70;2.50;;;;;;;;;;107788;1251;22571;-81
2023/07/07 10:28:05;;;;;;;5.50;2.60;;;;;;;;;;107854;1254;25364;-81
2023/07/07 10:30:31;;;;;;;4.30;2.40;;;;;;;;;;107836;1250;24261;-81
2023/07/07 10:32:58;;;;;;;4.00;2.60;;;;;;;;;;108098;1251;22615;-81
2023/07/07 10:35:24;;;;;;;7.30;3.10;;;;;;;;;;108032;1253;22527;-81
2023/07/07 10:37:51;;;;;;;5.50;3.00;;;;;;;;;;107929;1251;22611;-81
2023/07/07 10:40:21;;;;;;;6.80;2.70;;;;;;;;;;108039;1251;25468;-80
2023/07/07 10:42:52;;;;;;;5.00;2.60;;;;;;;;;;107803;1251;22520;-81
2023/07/07 10:45:19;;;;;;;10.50;2.40;;;;;;;;;;107797;1250;22539;-81
2023/07/07 10:47:45;;;;;;;7.30;2.80;;;;;;;;;;107730;1251;25495;-81
2023/07/07 10:50:13;;;;;;;6.70;2.80;;;;;;;;;;107968;1251;22639;-81
2023/07/07 10:52:46;;;;;;;10.80;3.70;;;;;;;;;;107853;1249;22614;-80
2023/07/07 10:55:22;;;;;;;7.40;3.20;;;;;;;;;;107840;1251;22640;-81
2023/07/07 10:57:48;;;;;;;6.00;3.90;;;;;;;;;;107867;1251;25317;-81
2023/07/07 11:00:27;;;;;;;11.70;6.40;;;;;;;;;;107940;1251;22738;-81
2023/07/07 11:03:19;;;;;;;5.60;3.60;;;;;;;;;;108034;1251;22610;-81
2023/07/07 11:05:46;;;;;;;8.50;3.40;;;;;;;;;;107900;1255;23111;-81
2023/07/07 11:08:26;;;;;;;7.30;3.90;;;;;;;;;;107750;1251;22655;-81
2023/07/07 11:11:06;;;;;;;5.80;3.50;;;;;;;;;;108224;1251;22674;-81
2023/07/07 11:13:36;;;;;;;6.00;3.00;;;;;;;;;;108018;1251;25436;-81
2023/07/07 11:16:02;;;;;;;10.30;3.00;;;;;;;;;;107913;1251;26530;-81
2023/07/07 11:18:45;;;;;;;4.70;2.70;;;;;;;;;;107777;1251;24218;-81
2023/07/07 11:21:11;;;;;;;3.80;2.40;;;;;;;;;;107966;1251;22530;-82
2023/07/07 11:23:47;;;;;;;6.20;2.50;;;;;;;;;;108176;1251;23338;-82
2023/07/07 11:26:32;;;;;;;5.50;2.70;;;;;;;;;;107883;1250;23127;-81
2023/07/07 11:28:58;;;;;;;6.00;3.10;;;;;;;;;;107967;1251;24286;-81
2023/07/07 11:31:31;;;;;;;6.10;3.10;;;;;;;;;;107986;1252;25262;-81
2023/07/07 11:33:57;;;;;;;5.30;2.60;;;;;;;;;;108046;1251;26570;-81
2023/07/07 11:36:33;;;;;;;7.00;3.20;;;;;;;;;;107847;1251;22552;-81
2023/07/07 11:39:17;;;;;;;4.10;2.60;;;;;;;;;;107947;1254;22518;-81
2023/07/07 11:41:47;;;;;;;7.00;2.80;;;;;;;;;;108004;1251;22962;-81
2023/07/07 11:44:26;;;;;;;3.80;2.60;;;;;;;;;;108093;1251;22684;-81
2023/07/07 11:46:52;;;;;;;4.50;2.40;;;;;;;;;;108299;1249;22533;-80
2023/07/07 11:49:22;;;;;;;4.90;2.80;;;;;;;;;;108316;1251;22542;-81
2023/07/07 11:51:52;;;;;;;5.30;2.60;;;;;;;;;;108302;1251;22662;-80
2023/07/07 11:54:21;;;;;;;4.50;2.20;;;;;;;;;;108408;1251;24282;-81
2023/07/07 11:57:07;;;;;;;5.40;2.90;;;;;;;;;;108268;1251;22527;-81
2023/07/07 11:59:54;;;;;;;6.10;2.70;;;;;;;;;;108550;1249;22539;-81
2023/07/07 12:02:31;;;;;;;4.00;2.10;;;;;;;;;;108427;1251;22558;-81
2023/07/07 12:04:58;;;;;;;5.20;2.30;;;;;;;;;;108480;1251;24777;-81
2023/07/07 12:07:39;;;;;;;7.80;2.40;;;;;;;;;;108365;1249;22964;-81
2023/07/07 12:10:16;;;;;;;4.90;2.00;;;;;;;;;;108338;1250;23367;-81
2023/07/07 12:12:46;;;;;;;5.70;2.40;;;;;;;;;;108368;1251;24396;-81
2023/07/07 12:15:18;;;;;;;2.80;1.50;;;;;;;;;;108126;1251;24385;-81
2023/07/07 12:18:03;;;;;;;4.20;1.80;;;;;;;;;;107976;1254;22553;-81
2023/07/07 12:20:31;;;;;;;5.50;2.00;;;;;;;;;;107989;1251;24223;-82
2023/07/07 12:23:00;;;;;;;4.20;2.00;;;;;;;;;;108266;1252;25404;-81
2023/07/07 12:25:28;;;;;;;8.70;2.20;;;;;;;;;;107843;1251;25367;-82
2023/07/07 12:27:54;;;;;;;4.00;2.50;;;;;;;;;;107946;1251;25330;-81
2023/07/07 12:30:22;;;;;;;7.40;2.30;;;;;;;;;;107993;1255;22544;-81
2023/07/07 12:32:48;;;;;;;6.00;2.10;;;;;;;;;;108121;1251;23157;-81
2023/07/07 12:35:15;;;;;;;5.60;2.70;;;;;;;;;;108093;1251;23525;-81
2023/07/07 12:37:42;;;;;;;3.30;2.30;;;;;;;;;;108027;1251;22514;-81
2023/07/07 12:40:09;;;;;;;6.00;3.10;;;;;;;;;;107810;1251;22617;-82
2023/07/07 12:42:35;;;;;;;5.60;3.70;;;;;;;;;;108081;1251;25510;-81
2023/07/07 12:45:09;;;;;;;7.40;4.40;;;;;;;;;;108152;1251;25801;-80
2023/07/07 12:47:36;;;;;;;7.70;4.20;;;;;;;;;;108216;1251;22587;-81
2023/07/07 12:50:05;;;;;;;10.70;3.10;;;;;;;;;;107901;1250;24193;-81
2023/07/07 12:52:49;;;;;;;5.50;3.50;;;;;;;;;;108310;1252;25415;-81
2023/07/07 12:55:21;;;;;;;5.70;3.50;;;;;;;;;;108020;1252;24489;-81
2023/07/07 12:58:00;;;;;;;6.10;3.70;;;;;;;;;;108001;1251;24217;-81
2023/07/07 13:00:28;;;;;;;6.80;3.90;;;;;;;;;;108172;1251;22649;-81
2023/07/07 13:03:10;;;;;;;6.30;2.80;;;;;;;;;;108381;1250;23106;-81
2023/07/07 13:05:46;;;;;;;8.60;3.60;;;;;;;;;;108296;1251;22519;-81
2023/07/07 13:08:39;;;;;;;6.90;3.70;;;;;;;;;;107924;1250;24375;-81
2023/07/07 13:11:07;;;;;;;5.70;2.30;;;;;;;;;;108165;1250;23165;-80
2023/07/07 13:13:34;;;;;;;3.90;2.30;;;;;;;;;;108460;1251;22538;-80
2023/07/07 13:16:01;;;;;;;4.50;2.00;;;;;;;;;;108266;1253;22540;-80
2023/07/07 13:18:27;;;;;;;7.70;2.40;;;;;;;;;;108407;1251;22492;-80
2023/07/07 13:20:53;;;;;;;3.00;2.50;;;;;;;;;;110547;1251;23024;-81
2023/07/07 13:23:25;;;;;;;7.60;3.20;;;;;;;;;;110611;1251;23017;-81
2023/07/07 13:25:52;;;;;;;7.00;4.40;;;;;;;;;;110049;1251;22809;-80
2023/07/07 13:28:18;;;;;;;6.20;4.50;;;;;;;;;;108118;1251;22651;-82
2023/07/07 13:30:46;;;;;;;11.30;3.00;;;;;;;;;;108258;1255;22673;-79
2023/07/07 13:33:14;;;;;;;5.30;3.50;;;;;;;;;;108265;1251;22561;-81
2023/07/07 13:35:42;;;;;;;4.50;3.20;;;;;;;;;;107934;1251;23373;-80
2023/07/07 13:38:15;;;;;;;8.30;3.80;;;;;;;;;;108543;1251;24268;-80
2023/07/07 13:40:42;;;;;;;3.90;3.00;;;;;;;;;;108293;1249;22531;-79
2023/07/07 13:43:28;;;;;;;7.90;3.60;;;;;;;;;;108421;1251;22578;-80
2023/07/07 13:46:14;;;;;;;6.10;3.00;;;;;;;;;;108279;1251;22531;-80
2023/07/07 13:48:42;;;;;;;5.40;3.40;;;;;;;;;;108207;1252;22745;-80
2023/07/07 13:51:12;;;;;;;6.90;2.90;;;;;;;;;;108285;1253;22575;-80
2023/07/07 13:53:38;;;;;;;3.80;2.10;;;;;;;;;;108422;1250;22558;-80
2023/07/07 13:56:05;;;;;;;5.50;2.50;;;;;;;;;;108071;1251;24223;-80
2023/07/07 13:58:32;;;;;;;6.70;2.20;;;;;;;;;;108104;1251;22630;-81
2023/07/07 14:00:59;;;;;;;3.70;2.30;;;;;;;;;;108213;1251;22603;-80
2023/07/07 14:03:26;;;;;;;5.20;2.70;;;;;;;;;;108236;1249;22469;-80
2023/07/07 14:05:55;;;;;;;4.00;2.50;;;;;;;;;;108205;1251;23371;-80
2023/07/07 14:08:22;;;;;;;3.20;2.10;;;;;;;;;;108060;1251;24194;-80
2023/07/07 14:10:49;;;;;;;3.30;2.00;;;;;;;;;;108105;1254;22547;-80
2023/07/07 14:13:28;;;;;;;5.10;2.40;;;;;;;;;;108342;1253;24388;-80
2023/07/07 14:15:55;;;;;;;6.20;1.60;;;;;;;;;;108247;1252;23329;-80
2023/07/07 14:18:23;;;;;;;5.90;2.10;;;;;;;;;;108193;1253;22531;-80
2023/07/07 14:20:49;;;;;;;2.90;1.80;;;;;;;;;;108211;1251;22567;-80
2023/07/07 14:23:16;;;;;;;2.80;1.80;;;;;;;;;;107873;1251;23148;-80
2023/07/07 14:25:44;;;;;;;2.20;1.40;;;;;;;;;;108027;1254;22636;-80
2023/07/07 14:28:10;;;;;;;;;;;;;;;;;;107804;1251;22798;-80
2023/07/07 14:30:37;;;;;;;2.60;1.60;;;;;;;;;;107981;1251;22563;-80
2023/07/07 14:33:03;;;;;;;4.80;1.70;;;;;;;;;;107929;1251;22608;-80
2023/07/07 14:35:31;;;;;;;6.10;2.00;;;;;;;;;;107841;1251;24369;-80